createdAt,value
2018-07-17T00:01:11.527Z,8.43
2018-07-17T00:03:40.067Z,8.50
2018-07-17T00:06:08.562Z,8.07
2018-07-17T00:08:37.197Z,8.60
2018-07-17T00:11:05.761Z,7.33
2018-07-17T00:13:34.277Z,8.80
2018-07-17T00:16:02.856Z,7.30
2018-07-17T00:18:31.368Z,8.63
2018-07-17T00:20:59.898Z,7.90
2018-07-17T00:23:28.448Z,8.47
2018-07-17T00:25:57.087Z,9.17
2018-07-17T00:28:25.578Z,8.90
2018-07-17T00:30:54.287Z,9.23
2018-07-17T00:33:23.371Z,9.37
2018-07-17T00:35:51.889Z,9.30
2018-07-17T00:38:20.453Z,9.03
2018-07-17T00:40:49.102Z,9.90
2018-07-17T00:43:17.653Z,10.03
2018-07-17T00:45:46.232Z,9.40
2018-07-17T00:48:14.764Z,10.07
2018-07-17T00:50:43.322Z,9.10
2018-07-17T00:53:11.881Z,10.30
2018-07-17T00:55:40.412Z,9.60
2018-07-17T00:58:09.050Z,9.97
2018-07-17T01:00:42.993Z,10.90
2018-07-17T01:03:16.831Z,10.40
2018-07-17T01:05:50.758Z,10.43
2018-07-17T01:08:25.101Z,12.10
2018-07-17T01:10:58.862Z,11.53
2018-07-17T01:13:32.624Z,11.07
2018-07-17T01:16:01.455Z,11.60
2018-07-17T01:18:29.949Z,9.97
2018-07-17T01:20:58.466Z,11.50
2018-07-17T01:23:27.037Z,12.53
2018-07-17T01:25:55.565Z,11.70
2018-07-17T01:28:24.045Z,10.30
2018-07-17T01:30:52.979Z,11.60
2018-07-17T01:33:21.507Z,11.70
2018-07-17T01:35:50.018Z,11.80
2018-07-17T01:38:18.608Z,12.90
2018-07-17T01:40:47.171Z,12.20
2018-07-17T01:43:15.714Z,10.87
2018-07-17T01:45:44.337Z,11.67
2018-07-17T01:48:12.875Z,11.43
2018-07-17T01:50:41.423Z,11.13
2018-07-17T01:53:09.921Z,12.10
2018-07-17T01:55:38.446Z,11.83
2018-07-17T01:58:06.959Z,10.77
2018-07-17T02:00:35.468Z,12.87
2018-07-17T02:03:04.053Z,11.70
2018-07-17T02:05:32.544Z,11.20
2018-07-17T02:08:01.046Z,11.40
2018-07-17T02:10:29.565Z,10.90
2018-07-17T02:12:58.026Z,11.80
2018-07-17T02:15:26.577Z,11.83
2018-07-17T02:17:55.129Z,12.03
2018-07-17T02:20:23.619Z,11.93
2018-07-17T02:22:52.170Z,11.80
2018-07-17T02:25:20.689Z,12.00
2018-07-17T02:27:49.165Z,12.37
2018-07-17T02:30:17.739Z,12.07
2018-07-17T02:32:47.362Z,11.70
2018-07-17T02:35:15.972Z,13.00
2018-07-17T02:37:44.496Z,12.50
2018-07-17T02:40:13.325Z,12.43
2018-07-17T02:42:41.825Z,14.57
2018-07-17T02:45:10.351Z,12.47
2018-07-17T02:47:38.954Z,12.87
2018-07-17T02:50:07.626Z,13.53
2018-07-17T02:52:36.183Z,13.60
2018-07-17T02:55:04.693Z,14.47
2018-07-17T02:57:33.219Z,14.70
2018-07-17T03:00:01.736Z,14.20
2018-07-17T03:02:30.235Z,14.00
2018-07-17T03:04:58.907Z,13.47
2018-07-17T03:07:27.607Z,14.40
2018-07-17T03:09:56.113Z,13.90
2018-07-17T03:12:24.645Z,13.23
2018-07-17T03:14:53.170Z,15.00
2018-07-17T03:17:21.639Z,16.07
2018-07-17T03:19:50.155Z,15.03
2018-07-17T03:22:18.692Z,15.90
2018-07-17T03:24:47.646Z,14.80
2018-07-17T03:27:16.408Z,16.87
2018-07-17T03:29:44.959Z,15.43
2018-07-17T03:32:13.559Z,17.83
2018-07-17T03:34:42.101Z,15.93
2018-07-17T03:37:10.630Z,14.10
2018-07-17T03:39:39.153Z,13.50
2018-07-17T03:42:07.641Z,16.23
2018-07-17T03:44:36.198Z,15.20
2018-07-17T03:47:05.116Z,17.70
2018-07-17T03:49:33.686Z,15.80
2018-07-17T03:52:02.386Z,16.17
2018-07-17T03:54:30.917Z,15.17
2018-07-17T03:56:59.412Z,14.90
2018-07-17T03:59:28.096Z,15.07
2018-07-17T04:01:56.585Z,15.87
2018-07-17T04:04:25.194Z,14.60
2018-07-17T04:06:53.736Z,14.50
2018-07-17T04:09:22.232Z,15.33
2018-07-17T04:11:50.733Z,14.47
2018-07-17T04:14:19.449Z,14.73
2018-07-17T04:16:54.337Z,14.03
2018-07-17T04:19:23.527Z,14.17
2018-07-17T04:21:52.395Z,14.50
2018-07-17T04:24:21.994Z,13.90
2018-07-17T04:26:50.571Z,13.10
2018-07-17T04:29:19.519Z,12.30
2018-07-17T04:31:48.597Z,11.70
2018-07-17T04:34:17.146Z,13.17
2018-07-17T04:36:45.714Z,13.40
2018-07-17T04:39:14.678Z,13.23
2018-07-17T04:41:43.194Z,14.07
2018-07-17T04:44:11.770Z,14.40
2018-07-17T04:46:40.294Z,13.13
2018-07-17T04:49:08.846Z,14.27
2018-07-17T04:51:37.373Z,13.50
2018-07-17T04:54:06.018Z,13.93
2018-07-17T04:56:34.526Z,13.43
2018-07-17T04:59:03.026Z,13.43
2018-07-17T05:01:31.708Z,12.60
2018-07-17T05:04:00.138Z,14.33
2018-07-17T05:06:28.689Z,14.10
2018-07-17T05:08:57.740Z,14.50
2018-07-17T05:11:26.238Z,14.00
2018-07-17T05:13:54.789Z,12.17
2018-07-17T05:16:23.316Z,11.03
2018-07-17T05:18:51.834Z,11.53
2018-07-17T05:21:20.365Z,11.30
2018-07-17T05:23:48.891Z,12.20
2018-07-17T05:26:17.466Z,12.90
2018-07-17T05:28:45.994Z,12.10
2018-07-17T05:31:14.655Z,11.70
2018-07-17T05:33:43.169Z,11.07
2018-07-17T05:36:11.713Z,11.53
2018-07-17T05:38:40.198Z,10.78
2018-07-17T05:41:08.797Z,11.45
2018-07-17T05:43:37.281Z,10.88
2018-07-17T05:46:05.883Z,10.40
2018-07-17T05:48:34.439Z,10.03
2018-07-17T05:51:03.025Z,8.75
2018-07-17T05:53:31.542Z,10.32
2018-07-17T05:56:00.061Z,9.80
2018-07-17T05:58:29.174Z,9.58
2018-07-17T06:00:57.679Z,9.03
2018-07-17T06:03:26.569Z,8.98
2018-07-17T06:05:55.113Z,7.65
2018-07-17T06:08:23.612Z,8.13
2018-07-17T06:10:52.252Z,8.03
2018-07-17T06:13:20.714Z,8.23
2018-07-17T06:15:49.246Z,7.70
2018-07-17T06:18:17.835Z,8.35
2018-07-17T06:20:46.605Z,8.10
2018-07-17T06:23:15.135Z,7.40
2018-07-17T06:25:43.710Z,6.95
2018-07-17T06:28:12.219Z,6.83
2018-07-17T06:30:40.725Z,6.58
2018-07-17T06:33:09.239Z,7.08
2018-07-17T06:35:37.760Z,6.45
2018-07-17T06:38:06.593Z,6.25
2018-07-17T06:40:35.142Z,6.08
2018-07-17T06:43:03.714Z,7.10
2018-07-17T06:45:32.277Z,6.10
2018-07-17T06:48:00.778Z,6.25
2018-07-17T06:50:29.472Z,6.25
2018-07-17T06:52:57.953Z,7.72
2018-07-17T06:55:26.477Z,6.47
2018-07-17T06:57:55.403Z,6.62
2018-07-17T07:00:24.000Z,6.87
2018-07-17T07:02:52.482Z,7.03
2018-07-17T07:05:21.107Z,7.45
2018-07-17T07:07:49.718Z,6.60
2018-07-17T07:10:18.250Z,6.35
2018-07-17T07:12:46.804Z,6.62
2018-07-17T07:15:15.372Z,7.08
2018-07-17T07:17:43.890Z,7.40
2018-07-17T07:20:12.426Z,6.95
2018-07-17T07:22:40.978Z,7.50
2018-07-17T07:25:10.494Z,7.97
2018-07-17T07:27:39.012Z,9.50
2018-07-17T07:30:07.820Z,8.60
2018-07-17T07:32:36.349Z,8.50
2018-07-17T07:35:05.198Z,8.33
2018-07-17T07:37:33.817Z,8.23
2018-07-17T07:40:02.332Z,9.80
2018-07-17T07:42:30.848Z,8.10
2018-07-17T07:44:59.463Z,9.30
2018-07-17T07:47:27.958Z,9.20
2018-07-17T07:49:56.512Z,8.70
2018-07-17T07:52:25.092Z,7.80
2018-07-17T07:54:53.705Z,8.57
2018-07-17T07:57:22.231Z,8.13
2018-07-17T07:59:50.720Z,8.53
2018-07-17T08:02:19.677Z,8.30
2018-07-17T08:04:48.201Z,8.40
2018-07-17T08:07:17.357Z,7.93
2018-07-17T08:09:46.074Z,7.40
2018-07-17T08:12:14.640Z,7.90
2018-07-17T08:14:43.177Z,7.30
2018-07-17T08:17:11.994Z,6.93
2018-07-17T08:19:40.505Z,7.43
2018-07-17T08:22:09.133Z,7.40
2018-07-17T08:24:37.649Z,7.27
2018-07-17T08:27:06.581Z,8.23
2018-07-17T08:29:35.142Z,9.20
2018-07-17T08:32:03.733Z,7.60
2018-07-17T08:34:32.612Z,7.10
2018-07-17T08:37:01.126Z,6.60
2018-07-17T08:39:29.650Z,8.00
2018-07-17T08:41:58.196Z,8.10
2018-07-17T08:44:26.708Z,7.20
2018-07-17T08:46:55.633Z,8.70
2018-07-17T08:49:24.178Z,7.60
2018-07-17T08:51:52.662Z,7.30
2018-07-17T08:54:21.232Z,7.00
2018-07-17T08:56:49.729Z,6.90
2018-07-17T08:59:18.200Z,8.40
2018-07-17T09:01:46.829Z,7.13
2018-07-17T09:04:15.951Z,7.27
2018-07-17T09:06:44.453Z,6.73
2018-07-17T09:09:12.998Z,6.60
2018-07-17T09:11:41.493Z,5.93
2018-07-17T09:14:10.011Z,7.20
2018-07-17T09:16:38.610Z,6.83
2018-07-17T09:19:07.139Z,5.63
2018-07-17T09:21:35.679Z,6.03
2018-07-17T09:24:04.333Z,5.70
2018-07-17T09:26:32.873Z,5.67
2018-07-17T09:29:01.373Z,5.00
2018-07-17T09:31:29.878Z,5.90
2018-07-17T09:33:58.426Z,6.87
2018-07-17T09:36:27.133Z,7.10
2018-07-17T09:38:56.571Z,7.17
2018-07-17T09:41:25.071Z,6.67
2018-07-17T09:43:53.748Z,6.03
2018-07-17T09:46:23.015Z,5.10
2018-07-17T09:48:51.610Z,5.00
2018-07-17T09:51:20.173Z,4.33
2018-07-17T09:53:48.772Z,5.00
2018-07-17T09:56:17.324Z,4.70
2018-07-17T09:58:45.857Z,5.27
2018-07-17T10:01:20.373Z,5.20
2018-07-17T10:03:48.865Z,4.77
2018-07-17T10:06:17.407Z,4.40
2018-07-17T10:08:46.117Z,3.80
2018-07-17T10:11:14.812Z,4.47
2018-07-17T10:13:43.626Z,4.40
2018-07-17T10:16:12.243Z,4.80
2018-07-17T10:18:40.840Z,3.73
2018-07-17T10:21:09.565Z,3.87
2018-07-17T10:23:38.378Z,4.53
2018-07-17T10:26:07.052Z,5.00
2018-07-17T10:28:35.583Z,4.92
2018-07-17T10:31:04.140Z,5.05
2018-07-17T10:33:32.943Z,4.40
2018-07-17T10:36:01.553Z,4.60
2018-07-17T10:38:30.277Z,4.53
2018-07-17T10:40:58.746Z,4.58
2018-07-17T10:43:27.398Z,3.62
2018-07-17T10:45:56.003Z,4.57
2018-07-17T10:48:24.549Z,3.98
2018-07-17T10:50:53.143Z,4.90
2018-07-17T10:53:21.650Z,5.90
2018-07-17T10:55:50.243Z,6.35
2018-07-17T10:58:18.973Z,6.30
2018-07-17T11:00:48.497Z,5.90
2018-07-17T11:03:17.417Z,7.87
2018-07-17T11:05:45.898Z,6.67
2018-07-17T11:08:14.395Z,6.37
2018-07-17T11:10:42.956Z,7.08
2018-07-17T11:13:11.472Z,5.83
2018-07-17T11:15:39.990Z,4.80
2018-07-17T11:18:08.555Z,5.50
2018-07-17T11:20:37.056Z,5.47
2018-07-17T11:23:05.718Z,5.47
2018-07-17T11:25:34.251Z,5.55
2018-07-17T11:28:03.126Z,5.78
2018-07-17T11:30:31.585Z,5.28
2018-07-17T11:33:00.074Z,5.25
2018-07-17T11:35:28.589Z,5.43
2018-07-17T11:37:57.125Z,6.50
2018-07-17T11:40:25.630Z,5.57
2018-07-17T11:42:54.175Z,5.07
2018-07-17T11:45:22.694Z,5.60
2018-07-17T11:47:51.262Z,4.87
2018-07-17T11:50:19.750Z,5.90
2018-07-17T11:52:48.221Z,5.28
2018-07-17T11:55:16.734Z,5.87
2018-07-17T11:57:45.231Z,4.23
2018-07-17T12:00:13.794Z,5.13
2018-07-17T12:02:42.263Z,4.87
2018-07-17T12:05:10.837Z,4.73
2018-07-17T12:07:39.394Z,5.70
2018-07-17T12:10:07.893Z,5.70
2018-07-17T12:12:36.561Z,5.23
2018-07-17T12:15:05.166Z,5.03
2018-07-17T12:17:33.783Z,5.58
2018-07-17T12:20:02.433Z,4.57
2018-07-17T12:22:30.878Z,4.50
2018-07-17T12:24:59.490Z,4.83
2018-07-17T12:27:28.033Z,4.10
2018-07-17T12:29:56.553Z,4.10
2018-07-17T12:32:25.819Z,4.00
2018-07-17T12:34:54.392Z,4.30
2018-07-17T12:37:22.969Z,4.00
2018-07-17T12:39:51.462Z,4.17
2018-07-17T12:42:20.050Z,4.00
2018-07-17T12:44:48.715Z,4.25
2018-07-17T12:47:17.296Z,3.37
2018-07-17T12:49:45.812Z,3.30
2018-07-17T12:52:14.591Z,3.87
2018-07-17T12:54:43.138Z,2.90
2018-07-17T12:57:11.959Z,2.37
2018-07-17T12:59:40.615Z,3.10
2018-07-17T13:02:09.283Z,2.90
2018-07-17T13:04:37.855Z,2.70
2018-07-17T13:07:06.383Z,2.70
2018-07-17T13:09:34.893Z,2.33
2018-07-17T13:12:03.451Z,3.03
2018-07-17T13:14:31.976Z,3.47
2018-07-17T13:17:00.510Z,4.12
2018-07-17T13:19:29.037Z,4.40
2018-07-17T13:21:57.618Z,6.77
2018-07-17T13:24:26.139Z,6.62
2018-07-17T13:26:54.717Z,6.60
2018-07-17T13:29:23.226Z,6.07
2018-07-17T13:31:51.751Z,7.50
2018-07-17T13:34:20.298Z,6.10
2018-07-17T13:36:48.812Z,7.00
2018-07-17T13:39:17.349Z,6.73
2018-07-17T13:41:45.906Z,6.83
2018-07-17T13:44:14.498Z,7.03
2018-07-17T13:46:43.039Z,6.30
2018-07-17T13:49:11.666Z,6.70
2018-07-17T13:51:40.744Z,7.20
2018-07-17T13:54:09.279Z,6.30
2018-07-17T13:56:37.873Z,7.57
2018-07-17T13:59:06.401Z,6.63
2018-07-17T14:01:34.989Z,7.23
2018-07-17T14:04:03.531Z,8.07
2018-07-17T14:06:32.372Z,7.90
2018-07-17T14:09:00.877Z,7.83
2018-07-17T14:11:29.423Z,7.20
2018-07-17T14:13:57.974Z,6.97
2018-07-17T14:16:26.453Z,7.93
2018-07-17T14:18:55.038Z,8.53
2018-07-17T14:21:23.618Z,6.97
2018-07-17T14:23:52.135Z,7.93
2018-07-17T14:26:20.750Z,6.70
2018-07-17T14:28:49.243Z,7.37
2018-07-17T14:31:17.785Z,7.70
2018-07-17T14:33:46.323Z,7.00
2018-07-17T14:36:16.077Z,7.50
2018-07-17T14:38:44.742Z,6.23
2018-07-17T14:41:13.268Z,7.50
2018-07-17T14:43:41.750Z,6.70
2018-07-17T14:46:10.297Z,7.43
2018-07-17T14:48:39.601Z,7.43
2018-07-17T14:51:10.494Z,6.17
2018-07-17T14:53:39.222Z,6.77
2018-07-17T14:56:08.181Z,6.10
2018-07-17T14:58:36.663Z,6.90
2018-07-17T15:01:05.807Z,6.40
2018-07-17T15:03:34.754Z,5.90
2018-07-17T15:06:03.437Z,6.43
2018-07-17T15:08:32.826Z,6.63
2018-07-17T15:11:01.390Z,5.90
2018-07-17T15:13:30.001Z,6.67
2018-07-17T15:15:58.667Z,6.07
2018-07-17T15:18:27.150Z,5.70
2018-07-17T15:20:55.633Z,6.23
2018-07-17T15:23:24.254Z,6.27
2018-07-17T15:25:52.871Z,5.43
2018-07-17T15:28:21.369Z,5.40
2018-07-17T15:30:49.902Z,6.30
2018-07-17T15:33:18.438Z,6.00
2018-07-17T15:35:46.977Z,5.50
2018-07-17T15:38:15.480Z,5.70
2018-07-17T15:40:45.021Z,5.87
2018-07-17T15:43:13.516Z,5.50
2018-07-17T15:45:42.993Z,5.53
2018-07-17T15:48:11.493Z,5.40
2018-07-17T15:50:39.982Z,4.80
2018-07-17T15:53:08.514Z,4.90
2018-07-17T15:55:37.058Z,5.03
2018-07-17T15:58:05.581Z,5.67
2018-07-17T16:00:34.126Z,5.80
2018-07-17T16:03:02.902Z,5.50
2018-07-17T16:05:31.469Z,4.73
2018-07-17T16:08:00.434Z,5.87
2018-07-17T16:10:29.177Z,4.87
2018-07-17T16:12:57.738Z,5.60
2018-07-17T16:15:26.330Z,5.30
2018-07-17T16:17:54.818Z,4.60
2018-07-17T16:20:23.327Z,4.80
2018-07-17T16:22:51.850Z,4.30
2018-07-17T16:25:20.433Z,4.90
2018-07-17T16:27:49.005Z,5.10
2018-07-17T16:30:17.681Z,4.90
2018-07-17T16:32:46.177Z,4.70
2018-07-17T16:35:14.766Z,5.33
2018-07-17T16:37:43.286Z,4.30
2018-07-17T16:40:11.817Z,4.67
2018-07-17T16:42:40.367Z,4.57
2018-07-17T16:45:08.991Z,3.90
2018-07-17T16:47:37.899Z,4.40
2018-07-17T16:50:06.611Z,4.70
2018-07-17T16:52:35.149Z,5.33
2018-07-17T16:55:03.736Z,4.23
2018-07-17T16:57:32.241Z,4.43
2018-07-17T17:00:00.820Z,4.90
2018-07-17T17:02:29.309Z,3.90
2018-07-17T17:04:57.890Z,4.57
2018-07-17T17:07:26.437Z,4.07
2018-07-17T17:09:54.953Z,4.30
2018-07-17T17:12:23.622Z,4.20
2018-07-17T17:14:52.180Z,4.23
2018-07-17T17:17:20.694Z,4.00
2018-07-17T17:19:49.860Z,4.80
2018-07-17T17:22:18.454Z,4.70
2018-07-17T17:24:47.387Z,4.30
2018-07-17T17:27:15.946Z,4.53
2018-07-17T17:29:44.468Z,4.37
2018-07-17T17:32:13.345Z,4.60
2018-07-17T17:34:41.878Z,4.87
2018-07-17T17:37:10.439Z,4.53
2018-07-17T17:39:39.095Z,5.20
2018-07-17T17:42:07.608Z,5.27
2018-07-17T17:44:36.085Z,5.60
2018-07-17T17:47:04.690Z,4.57
2018-07-17T17:49:33.178Z,6.77
2018-07-17T17:52:01.706Z,6.60
2018-07-17T17:54:30.305Z,5.80
2018-07-17T17:56:58.852Z,5.83
2018-07-17T17:59:27.377Z,5.83
2018-07-17T18:01:55.918Z,6.20
2018-07-17T18:04:24.546Z,6.00
2018-07-17T18:06:53.153Z,5.03
2018-07-17T18:09:21.661Z,5.83
2018-07-17T18:11:50.245Z,4.80
2018-07-17T18:14:18.814Z,6.20
2018-07-17T18:16:47.672Z,5.50
2018-07-17T18:19:16.282Z,5.40
2018-07-17T18:21:44.803Z,5.60
2018-07-17T18:24:13.407Z,4.73
2018-07-17T18:26:41.882Z,5.40
2018-07-17T18:29:11.105Z,5.53
2018-07-17T18:31:39.769Z,4.77
2018-07-17T18:34:11.740Z,5.43
2018-07-17T18:36:40.534Z,6.13
2018-07-17T18:39:09.605Z,5.33
2018-07-17T18:41:38.189Z,6.37
2018-07-17T18:44:06.763Z,6.20
2018-07-17T18:46:35.618Z,5.70
2018-07-17T18:49:04.141Z,5.67
2018-07-17T18:51:32.649Z,5.90
2018-07-17T18:54:01.271Z,6.73
2018-07-17T18:56:29.765Z,5.77
2018-07-17T18:58:58.289Z,5.77
2018-07-17T19:01:26.819Z,5.90
2018-07-17T19:03:55.998Z,5.50
2018-07-17T19:06:24.486Z,5.93
2018-07-17T19:08:52.995Z,5.33
2018-07-17T19:11:21.549Z,5.80
2018-07-17T19:13:50.038Z,6.20
2018-07-17T19:16:18.671Z,5.60
2018-07-17T19:18:47.211Z,5.97
2018-07-17T19:21:15.762Z,5.97
2018-07-17T19:23:44.290Z,5.63
2018-07-17T19:26:12.813Z,5.43
2018-07-17T19:28:41.331Z,6.00
2018-07-17T19:31:09.876Z,5.77
2018-07-17T19:33:38.412Z,5.70
2018-07-17T19:36:06.946Z,5.60
2018-07-17T19:38:35.479Z,4.57
2018-07-17T19:41:04.015Z,5.20
2018-07-17T19:43:32.939Z,6.10
2018-07-17T19:46:01.439Z,5.27
2018-07-17T19:48:29.921Z,5.17
2018-07-17T19:50:58.462Z,5.60
2018-07-17T19:53:27.010Z,5.03
2018-07-17T19:55:55.499Z,5.00
2018-07-17T19:58:24.407Z,5.50
2018-07-17T20:00:52.868Z,5.37
2018-07-17T20:03:21.338Z,5.13
2018-07-17T20:05:49.869Z,5.70
2018-07-17T20:08:18.669Z,5.30
2018-07-17T20:10:47.174Z,5.50
2018-07-17T20:13:15.813Z,4.73
2018-07-17T20:15:44.362Z,5.50
2018-07-17T20:18:12.933Z,5.80
2018-07-17T20:20:41.446Z,5.10
2018-07-17T20:23:09.928Z,5.70
2018-07-17T20:25:38.452Z,5.87
2018-07-17T20:28:07.333Z,5.83
2018-07-17T20:30:35.889Z,6.13
2018-07-17T20:33:04.546Z,6.10
2018-07-17T20:35:33.096Z,6.10
2018-07-17T20:38:01.671Z,6.40
2018-07-17T20:40:30.297Z,6.60
2018-07-17T20:42:58.871Z,6.70
2018-07-17T20:45:27.418Z,6.10
2018-07-17T20:47:56.024Z,7.00
2018-07-17T20:50:24.556Z,6.57
2018-07-17T20:52:53.134Z,7.17
2018-07-17T20:55:21.607Z,6.77
2018-07-17T20:57:50.073Z,6.83
2018-07-17T21:00:18.581Z,7.43
2018-07-17T21:02:47.197Z,7.53
2018-07-17T21:05:15.752Z,6.93
2018-07-17T21:07:44.285Z,7.00
2018-07-17T21:10:12.893Z,7.20
2018-07-17T21:12:41.433Z,6.67
2018-07-17T21:15:09.931Z,6.83
2018-07-17T21:17:38.398Z,7.40
2018-07-17T21:20:06.938Z,7.03
2018-07-17T21:22:35.412Z,6.40
2018-07-17T21:25:03.974Z,7.40
2018-07-17T21:27:32.449Z,7.50
2018-07-17T21:30:00.960Z,8.63
2018-07-17T21:32:29.429Z,7.43
2018-07-17T21:34:57.949Z,8.10
2018-07-17T21:37:26.421Z,7.67
2018-07-17T21:39:55.120Z,7.90
2018-07-17T21:42:24.509Z,9.07
2018-07-17T21:44:53.133Z,8.73
2018-07-17T21:47:22.085Z,8.70
2018-07-17T21:49:50.565Z,8.20
2018-07-17T21:52:19.068Z,8.40
2018-07-17T21:54:47.534Z,9.83
2018-07-17T21:57:16.061Z,8.50
2018-07-17T21:59:44.698Z,8.93
2018-07-17T22:02:13.267Z,8.57
2018-07-17T22:04:41.824Z,8.63
2018-07-17T22:07:10.354Z,8.70
2018-07-17T22:09:38.839Z,8.40
2018-07-17T22:12:07.338Z,9.10
2018-07-17T22:14:35.871Z,8.90
2018-07-17T22:17:04.397Z,9.37
2018-07-17T22:19:32.870Z,10.00
2018-07-17T22:22:01.394Z,9.63
2018-07-17T22:24:29.922Z,10.57
2018-07-17T22:26:58.437Z,10.17
2018-07-17T22:29:26.885Z,10.27
2018-07-17T22:31:55.361Z,10.10
2018-07-17T22:34:23.890Z,10.97
2018-07-17T22:36:52.392Z,11.23
2018-07-17T22:39:20.927Z,11.33
2018-07-17T22:41:49.426Z,11.90
2018-07-17T22:44:17.868Z,10.97
2018-07-17T22:46:46.332Z,12.70
2018-07-17T22:49:20.868Z,10.20
2018-07-17T22:51:50.298Z,11.70
2018-07-17T22:54:18.776Z,10.57
2018-07-17T22:56:47.389Z,11.20
2018-07-17T22:59:16.201Z,10.80
2018-07-17T23:01:44.805Z,10.67
2018-07-17T23:04:13.332Z,11.27
2018-07-17T23:06:41.828Z,10.87
2018-07-17T23:09:10.942Z,11.73
2018-07-17T23:11:40.365Z,12.47
2018-07-17T23:14:09.626Z,12.47
2018-07-17T23:16:38.243Z,11.30
2018-07-17T23:19:06.961Z,11.80
2018-07-17T23:21:35.420Z,11.97
2018-07-17T23:24:03.901Z,11.50
2018-07-17T23:26:32.415Z,12.57
2018-07-17T23:29:00.905Z,11.57
2018-07-17T23:31:29.344Z,12.37
2018-07-17T23:36:47.745Z,11.37
2018-07-17T23:39:16.273Z,11.70
2018-07-17T23:41:44.753Z,12.80
2018-07-17T23:44:13.265Z,13.93
2018-07-17T23:46:41.717Z,12.90
2018-07-17T23:49:14.340Z,12.30
2018-07-17T23:51:42.953Z,12.93
2018-07-17T23:54:11.453Z,12.30
2018-07-17T23:56:40.258Z,12.30
2018-07-17T23:59:08.705Z,12.50
